Sd416 Nippon — SKPF — position and weather

sailwx.info

Track history (hours):
 
Tides and Currents Weather Stations Pressure Air Temp Water Temp Dewpoint Dewpoint Depression Visibility Wind Speed Wind Dir Waves Ship Positions

Sd416 Nippon

Last reported at 2016-Jun-24 19:33 UTC. Time now 2016-Jun-24 20:26 UTC.
Position N 58°56' E 011°10'.

Length 17 m; draft 2.5 m.

Type: Fishing. MMSI: 266163000.

Date/timePositionNaut miles runAvg speedWind from/ knotsBaromVisibWave heightAir tempDewpointWater temp
2016-Jun-24 19:33N 58°56' E 011°10'0 0.0
2016-Jun-24 18:33N 58°56' E 011°10'0 0.0
2016-Jun-24 17:33N 58°56' E 011°10'0 0.0
2016-Jun-24 16:33N 58°56' E 011°10'0 0.0
2016-Jun-24 15:33N 58°56' E 011°10'0 0.0
2016-Jun-24 14:33N 58°56' E 011°10'0 0.0
2016-Jun-24 13:33N 58°56' E 011°10'0 0.0
2016-Jun-24 12:33N 58°56' E 011°10'0 0.0
2016-Jun-24 11:33N 58°56' E 011°10'0 0.0
2016-Jun-24 10:33N 58°56' E 011°10'0 0.0
2016-Jun-24 09:33N 58°56' E 011°10'0 0.0
2016-Jun-24 08:33N 58°56' E 011°10'0 0.0
2016-Jun-24 07:33N 58°56' E 011°10'0 0.0
2016-Jun-24 04:33N 58°56' E 011°10'0 0.0
2016-Jun-24 03:33N 58°56' E 011°10'0 0.0
2016-Jun-24 02:33N 58°56' E 011°10'0 0.0
2016-Jun-24 01:33N 58°56' E 011°10'0 0.0
2016-Jun-24 00:33N 58°56' E 011°10'0 0.0
2016-Jun-23 23:33N 58°56' E 011°10'0 0.0
2016-Jun-23 22:33N 58°56' E 011°10'0 0.0
2016-Jun-23 21:33N 58°56' E 011°10'0 0.0
2016-Jun-23 20:33N 58°56' E 011°10'0 0.0
2016-Jun-23 19:32N 58°56' E 011°10'0 0.0
2016-Jun-23 18:33N 58°56' E 011°10'0 0.0
2016-Jun-23 17:33N 58°56' E 011°10'0 0.0
2016-Jun-23 16:33N 58°56' E 011°10'0 0.0
2016-Jun-23 15:33N 58°56' E 011°10'0 0.0
2016-Jun-23 14:33N 58°56' E 011°10'0 0.0
2016-Jun-23 13:33N 58°56' E 011°10'0 0.0
2016-Jun-23 12:33N 58°56' E 011°10'0 0.0
2016-Jun-23 11:33N 58°56' E 011°10'0 0.0
2016-Jun-23 10:33N 58°56' E 011°10'0 0.0
2016-Jun-23 09:33N 58°56' E 011°10'0 0.0
2016-Jun-23 08:33N 58°56' E 011°10'4 4.0
2016-Jun-23 07:33N 58°58' E 011°03'9 4.5
2016-Jun-23 05:33N 59°05' E 010°52'2 1.7
2016-Jun-23 04:33N 59°03' E 010°54'8 7.9
2016-Jun-23 03:33N 58°57' E 011°04'3 3.4
2016-Jun-23 02:33N 58°56' E 011°10'0 0.0
2016-Jun-23 01:33N 58°56' E 011°10'0 0.0
2016-Jun-23 00:33N 58°56' E 011°10'0 0.0
2016-Jun-22 23:33N 58°56' E 011°10'0 0.0
2016-Jun-22 22:33N 58°56' E 011°10'0 0.0
2016-Jun-22 21:33N 58°56' E 011°10'0 0.0
2016-Jun-22 20:33N 58°56' E 011°10'0 0.0
2016-Jun-22 19:33N 58°56' E 011°10'0 0.0
2016-Jun-22 18:33N 58°56' E 011°10'0 0.0
2016-Jun-22 17:33N 58°56' E 011°10'0 0.0
2016-Jun-22 16:33N 58°56' E 011°10'0 0.0
2016-Jun-22 15:33N 58°56' E 011°10'0 0.0
2016-Jun-22 14:33N 58°56' E 011°10'0 0.0
2016-Jun-22 13:33N 58°56' E 011°10'0 0.0
2016-Jun-22 12:33N 58°56' E 011°10'0 0.1
2016-Jun-22 11:33N 58°56' E 011°10'3 3.2
2016-Jun-22 10:33N 58°55' E 011°04'5 5.3
2016-Jun-22 09:33N 58°54' E 010°55'7 7.1
2016-Jun-22 08:33N 58°48' E 010°45'8 7.7
2016-Jun-22 07:33N 58°43' E 010°35'8 5.4
2016-Jun-22 06:08N 58°37' E 010°24'1 1.0
2016-Jun-22 05:33N 58°37' E 010°24'1 1.3
2016-Jun-22 04:33N 58°36' E 010°25'1 1.4
2016-Jun-22 03:31N 58°34' E 010°26'3 0.9
2016-Jun-22 00:29N 58°32' E 010°24'1 1.4
2016-Jun-21 23:33N 58°33' E 010°24'1 1.3
2016-Jun-21 22:32N 58°34' E 010°24'1 1.4
2016-Jun-21 21:30N 58°36' E 010°23'1 1.4
2016-Jun-21 20:32N 58°37' E 010°21'1 1.3
2016-Jun-21 19:33N 58°38' E 010°22'2 2.0
2016-Jun-21 18:31N 58°40' E 010°24'1 0.7
2016-Jun-21 17:33N 58°40' E 010°25'1 1.3
2016-Jun-21 16:33N 58°39' E 010°25'1 1.5
2016-Jun-21 15:33N 58°38' E 010°26'2 1.4
2016-Jun-21 14:21N 58°36' E 010°27'1 1.4
2016-Jun-21 13:33N 58°35' E 010°29'1 1.4
2016-Jun-21 12:33N 58°34' E 010°30'1 1.3
2016-Jun-21 11:32N 58°33' E 010°32'1 1.4
2016-Jun-21 10:33N 58°32' E 010°33'1 1.4
2016-Jun-21 09:33N 58°31' E 010°35'1 1.4
2016-Jun-21 08:33N 58°31' E 010°37'4 4.1
2016-Jun-21 07:33N 58°33' E 010°44'13 6.7
2016-Jun-21 05:33N 58°44' E 010°59'7 7.2
2016-Jun-21 04:33N 58°51' E 011°05'6 6.0
2016-Jun-21 03:33N 58°56' E 011°10'0 0.2
2016-Jun-21 02:33N 58°56' E 011°10'0 0.0
2016-Jun-21 01:33N 58°56' E 011°10'0 0.0
2016-Jun-21 00:33N 58°56' E 011°10'0 0.0
2016-Jun-20 23:33N 58°56' E 011°10'0 0.0
2016-Jun-20 22:33N 58°56' E 011°10'0 0.0
2016-Jun-20 21:33N 58°56' E 011°10'0 0.0
2016-Jun-20 20:33N 58°56' E 011°10'0 0.0
2016-Jun-20 19:33N 58°56' E 011°10'0 0.0
2016-Jun-20 18:33N 58°56' E 011°10'0 0.0
2016-Jun-20 17:33N 58°56' E 011°10'0 0.0
2016-Jun-20 16:33N 58°56' E 011°10'0 0.0
2016-Jun-20 15:33N 58°56' E 011°10'0 0.0
2016-Jun-20 14:33N 58°56' E 011°10'0 0.0
2016-Jun-20 13:33N 58°56' E 011°10'0 0.0
2016-Jun-20 12:33N 58°56' E 011°10'3 2.8
2016-Jun-20 11:33N 58°56' E 011°05'7 7.3
2016-Jun-20 10:33N 58°53' E 010°52'7 7.3
2016-Jun-20 09:33N 58°49' E 010°41'7 6.6
2016-Jun-20 08:33N 58°45' E 010°31'7 6.6
2016-Jun-20 07:32N 58°41' E 010°20'1 0.7
2016-Jun-20 06:33N 58°40' E 010°19'1 1.5
2016-Jun-20 05:33N 58°39' E 010°20'1 1.4
2016-Jun-20 04:33N 58°37' E 010°20'2 1.4
2016-Jun-20 03:24N 58°36' E 010°21'1 1.4
2016-Jun-20 02:33N 58°35' E 010°23'2 1.3
2016-Jun-20 01:20N 58°34' E 010°25'1 1.4
2016-Jun-20 00:28N 58°33' E 010°26'1 1.4
2016-Jun-19 23:30N 58°31' E 010°26'1 1.4
2016-Jun-19 22:33N 58°30' E 010°27'1 1.4
2016-Jun-19 21:33N 58°29' E 010°29'1 1.4
2016-Jun-19 20:33N 58°28' E 010°31'1 1.4
2016-Jun-19 19:33N 58°27' E 010°31'1 1.4
2016-Jun-19 18:33N 58°25' E 010°30'1 1.5
2016-Jun-19 17:33N 58°26' E 010°32'7 7.0
2016-Jun-19 16:33N 58°31' E 010°41'7 6.6
2016-Jun-19 15:33N 58°37' E 010°49'7 6.8
2016-Jun-19 14:33N 58°42' E 010°57'8 7.6
2016-Jun-19 13:33N 58°48' E 011°05'7 7.3
2016-Jun-19 12:33N 58°56' E 011°07'2 1.6
2016-Jun-19 11:33N 58°56' E 011°10'0 0.0
2016-Jun-19 10:33N 58°56' E 011°10'0 0.0
2016-Jun-19 09:33N 58°56' E 011°10'0 0.0
2016-Jun-19 08:33N 58°56' E 011°10'0 0.0
2016-Jun-19 07:33N 58°56' E 011°10'0 0.0
2016-Jun-19 06:33N 58°56' E 011°10'0 0.0
2016-Jun-19 05:33N 58°56' E 011°10'0 0.0
2016-Jun-19 04:33N 58°56' E 011°10'0 0.0
2016-Jun-19 03:33N 58°56' E 011°10'0 0.0
2016-Jun-19 02:33N 58°56' E 011°10'0 0.0
2016-Jun-19 01:33N 58°56' E 011°10'0 0.0
2016-Jun-19 00:33N 58°56' E 011°10'0 0.0
2016-Jun-18 23:33N 58°56' E 011°10'0 0.0
2016-Jun-18 22:33N 58°56' E 011°10'0 0.0
2016-Jun-18 21:33N 58°56' E 011°10'0 0.0
2016-Jun-18 20:33N 58°56' E 011°10'0 0.0
2016-Jun-18 19:33N 58°56' E 011°10'0 0.0
2016-Jun-18 18:33N 58°56' E 011°10'0 0.0
2016-Jun-18 17:34N 58°56' E 011°10'0 0.0
2016-Jun-18 16:33N 58°56' E 011°10'0 0.0
2016-Jun-18 15:33N 58°56' E 011°10'0 0.0
2016-Jun-18 14:33N 58°56' E 011°10'0 0.0
2016-Jun-18 13:33N 58°56' E 011°10'0 0.0
2016-Jun-18 12:33N 58°56' E 011°10'0 0.0
2016-Jun-18 11:33N 58°56' E 011°10'0 0.0
2016-Jun-18 10:33N 58°56' E 011°10'0 0.0
2016-Jun-18 09:33N 58°56' E 011°10'0 0.0
2016-Jun-18 08:33N 58°56' E 011°10'0 0.0
2016-Jun-18 07:33N 58°56' E 011°10'0 0.0
2016-Jun-18 06:33N 58°56' E 011°10'0 0.0
2016-Jun-18 05:33N 58°56' E 011°10'0 0.0
2016-Jun-18 04:33N 58°56' E 011°10'0 0.0
2016-Jun-18 03:33N 58°56' E 011°10'0 0.0
2016-Jun-18 02:33N 58°56' E 011°10'0 0.0
2016-Jun-18 01:33N 58°56' E 011°10'0 0.0
2016-Jun-18 00:33N 58°56' E 011°10'0 0.0
2016-Jun-17 23:33N 58°56' E 011°10'0 0.0
2016-Jun-17 22:33N 58°56' E 011°10'0 0.0
2016-Jun-17 21:33N 58°56' E 011°10'0 0.0
2016-Jun-17 20:33N 58°56' E 011°10'0 0.0
2016-Jun-17 19:33N 58°56' E 011°10'0 0.0
2016-Jun-17 18:33N 58°56' E 011°10'0 0.0
2016-Jun-17 17:33N 58°56' E 011°10'0 0.0
2016-Jun-17 16:33N 58°56' E 011°10'0 0.0
2016-Jun-17 15:33N 58°56' E 011°10'0 0.0
2016-Jun-17 14:33N 58°56' E 011°10'0 0.0
2016-Jun-17 13:33N 58°56' E 011°10'0 0.0
2016-Jun-17 12:33N 58°56' E 011°10'0 0.0
2016-Jun-17 11:33N 58°56' E 011°10'0 0.0
2016-Jun-17 10:33N 58°56' E 011°10'0 0.0
2016-Jun-17 09:33N 58°56' E 011°10'0 0.0
2016-Jun-17 08:33N 58°56' E 011°10'0 0.0
2016-Jun-17 07:33N 58°56' E 011°10'0 0.0
2016-Jun-17 06:33N 58°56' E 011°10'0 0.0
2016-Jun-17 05:33N 58°56' E 011°10'0 0.0
2016-Jun-17 04:33N 58°56' E 011°10'0 0.0
2016-Jun-17 03:33N 58°56' E 011°10'0 0.0
2016-Jun-17 02:33N 58°56' E 011°10'0 0.0
2016-Jun-17 01:33N 58°56' E 011°10'0 0.0
2016-Jun-17 00:33N 58°56' E 011°10'0 0.0
2016-Jun-16 23:33N 58°56' E 011°10'0 0.0
2016-Jun-16 22:33N 58°56' E 011°10'0 0.0
2016-Jun-16 21:33N 58°56' E 011°10'0 0.0
2016-Jun-16 20:33N 58°56' E 011°10'0 0.0
2016-Jun-16 19:33N 58°56' E 011°10'0 0.0
2016-Jun-16 18:33N 58°56' E 011°10'0 0.0
2016-Jun-16 17:33N 58°56' E 011°10'0 0.0
2016-Jun-16 16:33N 58°56' E 011°10'0 0.0
2016-Jun-16 15:33N 58°56' E 011°10'0 0.0
2016-Jun-16 14:33N 58°56' E 011°10'0 0.0
2016-Jun-16 13:33N 58°56' E 011°10'0 0.0
2016-Jun-16 12:33N 58°56' E 011°10'0 0.0
2016-Jun-16 11:33N 58°56' E 011°10'0 0.0
2016-Jun-16 10:33N 58°56' E 011°10'0 0.0
2016-Jun-16 09:34N 58°56' E 011°10'6 5.6
2016-Jun-16 08:33N 58°59' E 011°01'7 7.2
2016-Jun-16 07:33N 59°05' E 010°52'0 0.0
2016-Jun-16 06:33N 59°05' E 010°52'1 0.7
2016-Jun-16 05:33N 59°04' E 010°52'8 7.8
2016-Jun-16 04:33N 58°58' E 011°02'5 4.5
2016-Jun-16 03:33N 58°56' E 011°10'0 0.0
2016-Jun-16 02:33N 58°56' E 011°10'0 0.0
2016-Jun-16 01:33N 58°56' E 011°10'0 0.0
2016-Jun-16 00:33N 58°56' E 011°10'0 0.0
2016-Jun-15 23:33N 58°56' E 011°10'0 0.0
2016-Jun-15 22:33N 58°56' E 011°10'0 0.0
2016-Jun-15 21:33N 58°56' E 011°10'0 0.0
2016-Jun-15 20:33N 58°56' E 011°10'0 0.0
2016-Jun-15 19:33N 58°56' E 011°10'0 0.0
2016-Jun-15 18:33N 58°56' E 011°10'0 0.0
2016-Jun-15 17:33N 58°56' E 011°10'0 0.0
2016-Jun-15 16:33N 58°56' E 011°10'0 0.0
2016-Jun-15 15:33N 58°56' E 011°10'0 0.0
2016-Jun-15 14:33N 58°56' E 011°10'0 0.1
2016-Jun-15 13:33N 58°56' E 011°10'0 0.1
2016-Jun-15 12:33N 58°56' E 011°10'0 0.0
2016-Jun-15 11:33N 58°56' E 011°10'3 3.4
2016-Jun-15 10:33N 58°56' E 011°04'6 6.3
2016-Jun-15 09:33N 58°53' E 010°53'7 6.9
2016-Jun-15 08:33N 58°49' E 010°42'7 6.6
2016-Jun-15 07:33N 58°47' E 010°30'6 5.8
2016-Jun-15 06:33N 58°46' E 010°19'7 3.4
2016-Jun-15 04:26N 58°46' E 010°05'1 1.0
2016-Jun-15 03:11N 58°45' E 010°07'1 1.3
2016-Jun-15 02:33N 58°44' E 010°08'1 1.3
2016-Jun-15 01:33N 58°44' E 010°10'1 1.4
2016-Jun-15 00:33N 58°43' E 010°12'1 1.4
2016-Jun-14 23:33N 58°42' E 010°14'1 1.3
2016-Jun-14 22:33N 58°41' E 010°15'2 1.2
2016-Jun-14 21:13N 58°40' E 010°13'  
Track history (hours):
 
Tides and Currents Weather Stations Pressure Air Temp Water Temp Dewpoint Dewpoint Depression Visibility Wind Speed Wind Dir Waves Ship Positions

Sd416 Nippon

Last reported at 2016-Jun-24 19:33 UTC. Time now 2016-Jun-24 20:26 UTC.
Position N 58°56' E 011°10'.

Length 17 m; draft 2.5 m.

Type: Fishing. MMSI: 266163000.

Date/timePositionNaut miles runAvg speedWind from/ knotsBaromVisibWave heightAir tempDewpointWater temp
2016-Jun-24 19:33N 58°56' E 011°10'0 0.0
2016-Jun-24 18:33N 58°56' E 011°10'0 0.0
2016-Jun-24 17:33N 58°56' E 011°10'0 0.0
2016-Jun-24 16:33N 58°56' E 011°10'0 0.0
2016-Jun-24 15:33N 58°56' E 011°10'0 0.0
2016-Jun-24 14:33N 58°56' E 011°10'0 0.0
2016-Jun-24 13:33N 58°56' E 011°10'0 0.0
2016-Jun-24 12:33N 58°56' E 011°10'0 0.0
2016-Jun-24 11:33N 58°56' E 011°10'0 0.0
2016-Jun-24 10:33N 58°56' E 011°10'0 0.0
2016-Jun-24 09:33N 58°56' E 011°10'0 0.0
2016-Jun-24 08:33N 58°56' E 011°10'0 0.0
2016-Jun-24 07:33N 58°56' E 011°10'0 0.0
2016-Jun-24 04:33N 58°56' E 011°10'0 0.0
2016-Jun-24 03:33N 58°56' E 011°10'0 0.0
2016-Jun-24 02:33N 58°56' E 011°10'0 0.0
2016-Jun-24 01:33N 58°56' E 011°10'0 0.0
2016-Jun-24 00:33N 58°56' E 011°10'0 0.0
2016-Jun-23 23:33N 58°56' E 011°10'0 0.0
2016-Jun-23 22:33N 58°56' E 011°10'0 0.0
2016-Jun-23 21:33N 58°56' E 011°10'0 0.0
2016-Jun-23 20:33N 58°56' E 011°10'0 0.0
2016-Jun-23 19:32N 58°56' E 011°10'0 0.0
2016-Jun-23 18:33N 58°56' E 011°10'0 0.0
2016-Jun-23 17:33N 58°56' E 011°10'0 0.0
2016-Jun-23 16:33N 58°56' E 011°10'0 0.0
2016-Jun-23 15:33N 58°56' E 011°10'0 0.0
2016-Jun-23 14:33N 58°56' E 011°10'0 0.0
2016-Jun-23 13:33N 58°56' E 011°10'0 0.0
2016-Jun-23 12:33N 58°56' E 011°10'0 0.0
2016-Jun-23 11:33N 58°56' E 011°10'0 0.0
2016-Jun-23 10:33N 58°56' E 011°10'0 0.0
2016-Jun-23 09:33N 58°56' E 011°10'0 0.0
2016-Jun-23 08:33N 58°56' E 011°10'4 4.0
2016-Jun-23 07:33N 58°58' E 011°03'9 4.5
2016-Jun-23 05:33N 59°05' E 010°52'2 1.7
2016-Jun-23 04:33N 59°03' E 010°54'8 7.9
2016-Jun-23 03:33N 58°57' E 011°04'3 3.4
2016-Jun-23 02:33N 58°56' E 011°10'0 0.0
2016-Jun-23 01:33N 58°56' E 011°10'0 0.0
2016-Jun-23 00:33N 58°56' E 011°10'0 0.0
2016-Jun-22 23:33N 58°56' E 011°10'0 0.0
2016-Jun-22 22:33N 58°56' E 011°10'0 0.0
2016-Jun-22 21:33N 58°56' E 011°10'0 0.0
2016-Jun-22 20:33N 58°56' E 011°10'0 0.0
2016-Jun-22 19:33N 58°56' E 011°10'0 0.0
2016-Jun-22 18:33N 58°56' E 011°10'0 0.0
2016-Jun-22 17:33N 58°56' E 011°10'0 0.0
2016-Jun-22 16:33N 58°56' E 011°10'0 0.0
2016-Jun-22 15:33N 58°56' E 011°10'0 0.0
2016-Jun-22 14:33N 58°56' E 011°10'0 0.0
2016-Jun-22 13:33N 58°56' E 011°10'0 0.0
2016-Jun-22 12:33N 58°56' E 011°10'0 0.1
2016-Jun-22 11:33N 58°56' E 011°10'3 3.2
2016-Jun-22 10:33N 58°55' E 011°04'5 5.3
2016-Jun-22 09:33N 58°54' E 010°55'7 7.1
2016-Jun-22 08:33N 58°48' E 010°45'8 7.7
2016-Jun-22 07:33N 58°43' E 010°35'8 5.4
2016-Jun-22 06:08N 58°37' E 010°24'1 1.0
2016-Jun-22 05:33N 58°37' E 010°24'1 1.3
2016-Jun-22 04:33N 58°36' E 010°25'1 1.4
2016-Jun-22 03:31N 58°34' E 010°26'3 0.9
2016-Jun-22 00:29N 58°32' E 010°24'1 1.4
2016-Jun-21 23:33N 58°33' E 010°24'1 1.3
2016-Jun-21 22:32N 58°34' E 010°24'1 1.4
2016-Jun-21 21:30N 58°36' E 010°23'1 1.4
2016-Jun-21 20:32N 58°37' E 010°21'1 1.3
2016-Jun-21 19:33N 58°38' E 010°22'2 2.0
2016-Jun-21 18:31N 58°40' E 010°24'1 0.7
2016-Jun-21 17:33N 58°40' E 010°25'1 1.3
2016-Jun-21 16:33N 58°39' E 010°25'1 1.5
2016-Jun-21 15:33N 58°38' E 010°26'2 1.4
2016-Jun-21 14:21N 58°36' E 010°27'1 1.4
2016-Jun-21 13:33N 58°35' E 010°29'1 1.4
2016-Jun-21 12:33N 58°34' E 010°30'1 1.3
2016-Jun-21 11:32N 58°33' E 010°32'1 1.4
2016-Jun-21 10:33N 58°32' E 010°33'1 1.4
2016-Jun-21 09:33N 58°31' E 010°35'1 1.4
2016-Jun-21 08:33N 58°31' E 010°37'4 4.1
2016-Jun-21 07:33N 58°33' E 010°44'13 6.7
2016-Jun-21 05:33N 58°44' E 010°59'7 7.2
2016-Jun-21 04:33N 58°51' E 011°05'6 6.0
2016-Jun-21 03:33N 58°56' E 011°10'0 0.2
2016-Jun-21 02:33N 58°56' E 011°10'0 0.0
2016-Jun-21 01:33N 58°56' E 011°10'0 0.0
2016-Jun-21 00:33N 58°56' E 011°10'0 0.0
2016-Jun-20 23:33N 58°56' E 011°10'0 0.0
2016-Jun-20 22:33N 58°56' E 011°10'0 0.0
2016-Jun-20 21:33N 58°56' E 011°10'0 0.0
2016-Jun-20 20:33N 58°56' E 011°10'0 0.0
2016-Jun-20 19:33N 58°56' E 011°10'0 0.0
2016-Jun-20 18:33N 58°56' E 011°10'0 0.0
2016-Jun-20 17:33N 58°56' E 011°10'0 0.0
2016-Jun-20 16:33N 58°56' E 011°10'0 0.0
2016-Jun-20 15:33N 58°56' E 011°10'0 0.0
2016-Jun-20 14:33N 58°56' E 011°10'0 0.0
2016-Jun-20 13:33N 58°56' E 011°10'0 0.0
2016-Jun-20 12:33N 58°56' E 011°10'3 2.8
2016-Jun-20 11:33N 58°56' E 011°05'7 7.3
2016-Jun-20 10:33N 58°53' E 010°52'7 7.3
2016-Jun-20 09:33N 58°49' E 010°41'7 6.6
2016-Jun-20 08:33N 58°45' E 010°31'7 6.6
2016-Jun-20 07:32N 58°41' E 010°20'1 0.7
2016-Jun-20 06:33N 58°40' E 010°19'1 1.5
2016-Jun-20 05:33N 58°39' E 010°20'1 1.4
2016-Jun-20 04:33N 58°37' E 010°20'2 1.4
2016-Jun-20 03:24N 58°36' E 010°21'1 1.4
2016-Jun-20 02:33N 58°35' E 010°23'2 1.3
2016-Jun-20 01:20N 58°34' E 010°25'1 1.4
2016-Jun-20 00:28N 58°33' E 010°26'1 1.4
2016-Jun-19 23:30N 58°31' E 010°26'1 1.4
2016-Jun-19 22:33N 58°30' E 010°27'1 1.4
2016-Jun-19 21:33N 58°29' E 010°29'1 1.4
2016-Jun-19 20:33N 58°28' E 010°31'1 1.4
2016-Jun-19 19:33N 58°27' E 010°31'1 1.4
2016-Jun-19 18:33N 58°25' E 010°30'1 1.5
2016-Jun-19 17:33N 58°26' E 010°32'7 7.0
2016-Jun-19 16:33N 58°31' E 010°41'7 6.6
2016-Jun-19 15:33N 58°37' E 010°49'7 6.8
2016-Jun-19 14:33N 58°42' E 010°57'8 7.6
2016-Jun-19 13:33N 58°48' E 011°05'7 7.3
2016-Jun-19 12:33N 58°56' E 011°07'2 1.6
2016-Jun-19 11:33N 58°56' E 011°10'0 0.0
2016-Jun-19 10:33N 58°56' E 011°10'0 0.0
2016-Jun-19 09:33N 58°56' E 011°10'0 0.0
2016-Jun-19 08:33N 58°56' E 011°10'0 0.0
2016-Jun-19 07:33N 58°56' E 011°10'0 0.0
2016-Jun-19 06:33N 58°56' E 011°10'0 0.0
2016-Jun-19 05:33N 58°56' E 011°10'0 0.0
2016-Jun-19 04:33N 58°56' E 011°10'0 0.0
2016-Jun-19 03:33N 58°56' E 011°10'0 0.0
2016-Jun-19 02:33N 58°56' E 011°10'0 0.0
2016-Jun-19 01:33N 58°56' E 011°10'0 0.0
2016-Jun-19 00:33N 58°56' E 011°10'0 0.0
2016-Jun-18 23:33N 58°56' E 011°10'0 0.0
2016-Jun-18 22:33N 58°56' E 011°10'0 0.0
2016-Jun-18 21:33N 58°56' E 011°10'0 0.0
2016-Jun-18 20:33N 58°56' E 011°10'0 0.0
2016-Jun-18 19:33N 58°56' E 011°10'0 0.0
2016-Jun-18 18:33N 58°56' E 011°10'0 0.0
2016-Jun-18 17:34N 58°56' E 011°10'0 0.0
2016-Jun-18 16:33N 58°56' E 011°10'0 0.0
2016-Jun-18 15:33N 58°56' E 011°10'0 0.0
2016-Jun-18 14:33N 58°56' E 011°10'0 0.0
2016-Jun-18 13:33N 58°56' E 011°10'0 0.0
2016-Jun-18 12:33N 58°56' E 011°10'0 0.0
2016-Jun-18 11:33N 58°56' E 011°10'0 0.0
2016-Jun-18 10:33N 58°56' E 011°10'0 0.0
2016-Jun-18 09:33N 58°56' E 011°10'0 0.0
2016-Jun-18 08:33N 58°56' E 011°10'0 0.0
2016-Jun-18 07:33N 58°56' E 011°10'0 0.0
2016-Jun-18 06:33N 58°56' E 011°10'0 0.0
2016-Jun-18 05:33N 58°56' E 011°10'0 0.0
2016-Jun-18 04:33N 58°56' E 011°10'0 0.0
2016-Jun-18 03:33N 58°56' E 011°10'0 0.0
2016-Jun-18 02:33N 58°56' E 011°10'0 0.0
2016-Jun-18 01:33N 58°56' E 011°10'0 0.0
2016-Jun-18 00:33N 58°56' E 011°10'0 0.0
2016-Jun-17 23:33N 58°56' E 011°10'0 0.0
2016-Jun-17 22:33N 58°56' E 011°10'0 0.0
2016-Jun-17 21:33N 58°56' E 011°10'0 0.0
2016-Jun-17 20:33N 58°56' E 011°10'0 0.0
2016-Jun-17 19:33N 58°56' E 011°10'0 0.0
2016-Jun-17 18:33N 58°56' E 011°10'0 0.0
2016-Jun-17 17:33N 58°56' E 011°10'0 0.0
2016-Jun-17 16:33N 58°56' E 011°10'0 0.0
2016-Jun-17 15:33N 58°56' E 011°10'0 0.0
2016-Jun-17 14:33N 58°56' E 011°10'0 0.0
2016-Jun-17 13:33N 58°56' E 011°10'0 0.0
2016-Jun-17 12:33N 58°56' E 011°10'0 0.0
2016-Jun-17 11:33N 58°56' E 011°10'0 0.0
2016-Jun-17 10:33N 58°56' E 011°10'0 0.0
2016-Jun-17 09:33N 58°56' E 011°10'0 0.0
2016-Jun-17 08:33N 58°56' E 011°10'0 0.0
2016-Jun-17 07:33N 58°56' E 011°10'0 0.0
2016-Jun-17 06:33N 58°56' E 011°10'0 0.0
2016-Jun-17 05:33N 58°56' E 011°10'0 0.0
2016-Jun-17 04:33N 58°56' E 011°10'0 0.0
2016-Jun-17 03:33N 58°56' E 011°10'0 0.0
2016-Jun-17 02:33N 58°56' E 011°10'0 0.0
2016-Jun-17 01:33N 58°56' E 011°10'0 0.0
2016-Jun-17 00:33N 58°56' E 011°10'0 0.0
2016-Jun-16 23:33N 58°56' E 011°10'0 0.0
2016-Jun-16 22:33N 58°56' E 011°10'0 0.0
2016-Jun-16 21:33N 58°56' E 011°10'0 0.0
2016-Jun-16 20:33N 58°56' E 011°10'0 0.0
2016-Jun-16 19:33N 58°56' E 011°10'0 0.0
2016-Jun-16 18:33N 58°56' E 011°10'0 0.0
2016-Jun-16 17:33N 58°56' E 011°10'0 0.0
2016-Jun-16 16:33N 58°56' E 011°10'0 0.0
2016-Jun-16 15:33N 58°56' E 011°10'0 0.0
2016-Jun-16 14:33N 58°56' E 011°10'0 0.0
2016-Jun-16 13:33N 58°56' E 011°10'0 0.0
2016-Jun-16 12:33N 58°56' E 011°10'0 0.0
2016-Jun-16 11:33N 58°56' E 011°10'0 0.0
2016-Jun-16 10:33N 58°56' E 011°10'0 0.0
2016-Jun-16 09:34N 58°56' E 011°10'6 5.6
2016-Jun-16 08:33N 58°59' E 011°01'7 7.2
2016-Jun-16 07:33N 59°05' E 010°52'0 0.0
2016-Jun-16 06:33N 59°05' E 010°52'1 0.7
2016-Jun-16 05:33N 59°04' E 010°52'8 7.8
2016-Jun-16 04:33N 58°58' E 011°02'5 4.5
2016-Jun-16 03:33N 58°56' E 011°10'0 0.0
2016-Jun-16 02:33N 58°56' E 011°10'0 0.0
2016-Jun-16 01:33N 58°56' E 011°10'0 0.0
2016-Jun-16 00:33N 58°56' E 011°10'0 0.0
2016-Jun-15 23:33N 58°56' E 011°10'0 0.0
2016-Jun-15 22:33N 58°56' E 011°10'0 0.0
2016-Jun-15 21:33N 58°56' E 011°10'0 0.0
2016-Jun-15 20:33N 58°56' E 011°10'0 0.0
2016-Jun-15 19:33N 58°56' E 011°10'0 0.0
2016-Jun-15 18:33N 58°56' E 011°10'0 0.0
2016-Jun-15 17:33N 58°56' E 011°10'0 0.0
2016-Jun-15 16:33N 58°56' E 011°10'0 0.0
2016-Jun-15 15:33N 58°56' E 011°10'0 0.0
2016-Jun-15 14:33N 58°56' E 011°10'0 0.1
2016-Jun-15 13:33N 58°56' E 011°10'0 0.1
2016-Jun-15 12:33N 58°56' E 011°10'0 0.0
2016-Jun-15 11:33N 58°56' E 011°10'3 3.4
2016-Jun-15 10:33N 58°56' E 011°04'6 6.3
2016-Jun-15 09:33N 58°53' E 010°53'7 6.9
2016-Jun-15 08:33N 58°49' E 010°42'7 6.6
2016-Jun-15 07:33N 58°47' E 010°30'6 5.8
2016-Jun-15 06:33N 58°46' E 010°19'7 3.4
2016-Jun-15 04:26N 58°46' E 010°05'1 1.0
2016-Jun-15 03:11N 58°45' E 010°07'1 1.3
2016-Jun-15 02:33N 58°44' E 010°08'1 1.3
2016-Jun-15 01:33N 58°44' E 010°10'1 1.4
2016-Jun-15 00:33N 58°43' E 010°12'1 1.4
2016-Jun-14 23:33N 58°42' E 010°14'1 1.3
2016-Jun-14 22:33N 58°41' E 010°15'2 1.2
2016-Jun-14 21:13N 58°40' E 010°13'  

Dump ship's entire track history